METAR AND TAF INFORMATION
METAR FOR TFFR
ADDS - METARS form results

(2107 UTC 20 February 2019)
Data provider http://aviationweather.gov/metar/data/
 
METAR text: TFFR 202100Z AUTO 07013KT 040V100 9999 FEW037 27/18 Q1016 NOSIG
Conditions at: TFFR (LE RAIZET , GP) observed 2100 UTC 20 February 2019
Temperature: 27.0°C (81°F)
Dewpoint: 18.0°C (64°F) [RH = 58%]
Pressure (altimeter): 30.00 inches Hg (1016.0 mb)
Winds: from the ENE (70 degrees) at 15 MPH (13 knots; 6.7 m/s)
Visibility: 6 or more miles (10+ km)
Ceiling: at least 12,000 feet AGL
Clouds: few clouds at 3700 feet AGL
Weather: no significant weather observed at this time

METAR text: TFFR 202030Z AUTO 08013KT 9999 SCT037 BKN056 28/19 Q1016 NOSIG
Conditions at: TFFR (LE RAIZET , GP) observed 2030 UTC 20 February 2019
Temperature: 28.0°C (82°F)
Dewpoint: 19.0°C (66°F) [RH = 58%]
Pressure (altimeter): 30.00 inches Hg (1016.0 mb)
Winds: from the E (80 degrees) at 15 MPH (13 knots; 6.7 m/s)
Visibility: 6 or more miles (10+ km)
Ceiling: 5600 feet AGL
Clouds: scattered clouds at 3700 feet AGL
broken clouds at 5600 feet AGL
Weather: no significant weather observed at this time

Forecast for: TFFR (LE RAIZET , GP)
Text: TAF TFFR 201700Z 2018/2118 07011KT 9999 SCT025 BKN050
Forecast period: 1800 UTC 20 February 2019 to 1800 UTC 21 February 2019
Forecast type: FROM: standard forecast or significant change
Winds: from the ENE (70 degrees) at 13 MPH (11 knots; 5.7 m/s)
Visibility: 6 or more miles 10+ km)
Ceiling: 5000 feet AGL
Clouds: scattered clouds at 2500 feet AGL
broken clouds at 5000 feet AGL
Weather: no significant weather forecast for this period
Text: PROB30
Forecast period: 0900 to 1800 UTC 21 February 2019
Forecast type: TEMPORARY: The following changes expected for less than half the time period
Visibility: 2.49 miles (4.01 km)
Ceiling: 1800 feet AGL
Clouds: broken clouds at 1800 feet AGL
Weather: SHRA  (rain showers)
Text: TEMPO 2109/2118 4000 SHRA BKN018TCU
Forecast period: 1100 to 1800 UTC 21 February 2019
Forecast type: TEMPORARY: The following changes expected for less than half the time period
Winds: from the E (90 degrees) at 17 MPH (15 knots; 7.7 m/s)
gusting to 29 MPH (25 knots; 12.9 m/s)
Visibility: missing
Ceiling: unknown
Clouds: missing
Weather: no significant weather forecast for this period

 AIRPORT MAP

 RUNWAY INFORMATION
Runway 12 Runway length 11499 ft Runway width 148 ft
Runway elevation 5 ft Runway displaced threshold 1312 ft Runway heading 101
Runway 30 Runway length 11499 ft Runway width 148 ft
Runway elevation 32 ft Runway displaced threshold 820 ft Runway heading 281

 AIRPORT FREQUENCIES
Type APP Name RAIZET APP Frequency 121.3 MHZ
Type ATIS Name ATIS Frequency 127.6 MHZ
Type GND Name GND Frequency 121.85 MHZ
Type TWR Name RAIZET TWR Frequency 118.4 MHZ

 AIRPORT NEAR NAVIGATION AIDS
Type VOR-DME Name Pointe A Pitre Frequency 112900 KHZ
Type NDB Name Pointe A Pitre Frequency 385 KHZ



Powered by Virtual Airlines Manager [v2.6.2]